KDHN/DHN METAR and TAF weather

Enter ICAO airport designator
Station Type Date Time Source
KDHN METAR 2021/05/13 05:53 UTC NOAA

KDHN 130553Z AUTO 05010KT 10SM OVC010 13/12 A3021 RMK AO2 SLP226 T01330117 10222 20133 50004


Station Type Date Time Source
KDHN Decoded METAR 2021/05/13 05:53 UTC NOAA

DOTHAN AIRPORT, AL, United States (KDHN) 31-19N 085-27W 113M
May 13, 2021 - 01:53 AM EDT / 2021.05.13 0553 UTC
Wind: from the NE (050 degrees) at 12 MPH (10 KT):0
Visibility: 10 mile(s):0
Sky conditions: overcast
Temperature: 55.9 F (13.3 C)
Dew Point: 53.1 F (11.7 C)
Relative Humidity: 90%
Pressure (altimeter): 30.21 in. Hg (1023 hPa)
Pressure tendency: 0.01 inches (0.4 hPa) higher than three hours ago
ob: KDHN 130553Z AUTO 05010KT 10SM OVC010 13/12 A3021 RMK AO2 SLP226 T01330117 10222 20133 50004
cycle: 6

Station Type Date Time Source
KDHN TAF 2021/05/13 06:33 UTC NOAA

TAF KDHN 130530Z 1306/1406 05011G19KT P6SM VCSH OVC010
FM131600 05009KT P6SM BKN025
FM131800 06009KT P6SM SCT050

Example: see airport list